createdAt,value
2022-11-22T07:13:57.304Z,73.61
2022-11-22T07:16:28.415Z,72.68
2022-11-22T07:18:55.931Z,75.83
2022-11-22T07:21:25.547Z,74.62
2022-11-22T07:23:54.973Z,73.41
2022-11-22T07:26:24.237Z,73.77
2022-11-22T07:28:52.730Z,71.43
2022-11-22T07:31:21.512Z,72.02
2022-11-22T07:33:49.262Z,73.49
2022-11-22T07:36:21.650Z,72.79
2022-11-22T07:38:49.799Z,73.46
2022-11-22T07:41:18.839Z,73.43
2022-11-22T07:43:47.140Z,74.22
2022-11-22T07:46:23.295Z,73.39
2022-11-22T07:48:51.085Z,71.46
2022-11-22T07:51:19.923Z,68.17
2022-11-22T07:53:48.478Z,70.51
2022-11-22T07:56:16.696Z,70.22
2022-11-22T07:58:44.628Z,69.02
2022-11-22T08:01:14.894Z,68.47
2022-11-22T08:03:43.452Z,59.73
2022-11-22T08:06:12.497Z,55.19
2022-11-22T08:08:40.178Z,57.05
2022-11-22T08:11:08.594Z,54.81
2022-11-22T08:13:36.466Z,52.09
2022-11-22T08:16:07.433Z,49.16
2022-11-22T08:18:35.758Z,52.77
2022-11-22T08:21:04.100Z,58.82
2022-11-22T08:23:43.343Z,54.07
2022-11-22T08:26:13.260Z,53.24
2022-11-22T08:28:41.954Z,51.16
2022-11-22T08:31:14.663Z,48.82
2022-11-22T08:33:42.457Z,57.91
2022-11-22T08:36:10.492Z,59.95
2022-11-22T08:38:38.245Z,62.20
2022-11-22T08:41:06.707Z,60.85
2022-11-22T08:43:34.678Z,56.75
2022-11-22T08:46:03.016Z,52.71
2022-11-22T08:48:32.770Z,53.59
2022-11-22T08:51:02.878Z,54.59
2022-11-22T08:53:32.479Z,54.33
2022-11-22T08:56:01.593Z,50.49
2022-11-22T08:58:31.130Z,52.29
2022-11-22T09:01:08.182Z,49.73
2022-11-22T09:03:36.347Z,49.54
2022-11-22T09:09:03.263Z,51.17
2022-11-22T09:11:36.528Z,52.01
2022-11-22T09:14:04.001Z,55.54
2022-11-22T09:16:31.522Z,52.19
2022-11-22T09:18:59.439Z,53.96
2022-11-22T09:21:27.011Z,55.51
2022-11-22T09:23:54.682Z,56.43
2022-11-22T09:26:25.166Z,53.92
2022-11-22T09:28:55.474Z,49.18
2022-11-22T09:31:23.542Z,51.94
2022-11-22T09:33:51.039Z,59.10
2022-11-22T09:36:21.783Z,57.65
2022-11-22T09:38:50.720Z,54.33
2022-11-22T09:41:42.896Z,57.39
2022-11-22T09:44:35.929Z,60.57
2022-11-22T09:47:18.667Z,59.78
2022-11-22T09:49:55.457Z,57.36
2022-11-22T09:52:30.201Z,56.20
2022-11-22T09:55:02.143Z,51.54
2022-11-22T09:57:42.729Z,52.18
2022-11-22T10:00:31.308Z,53.52
2022-11-22T10:03:24.666Z,48.76
2022-11-22T10:05:54.374Z,46.36
2022-11-22T10:08:59.039Z,41.33
2022-11-22T10:11:43.176Z,41.81
2022-11-22T10:14:29.988Z,43.19
2022-11-22T10:17:35.196Z,43.45
2022-11-22T10:20:05.959Z,51.05
2022-11-22T10:22:35.274Z,46.88
2022-11-22T10:25:10.290Z,42.42
2022-11-22T10:27:41.224Z,44.75
2022-11-22T10:30:20.879Z,41.30
2022-11-22T10:32:55.152Z,39.21
2022-11-22T10:35:30.695Z,45.50
2022-11-22T10:38:03.554Z,46.83
2022-11-22T10:40:51.114Z,47.30
2022-11-22T10:43:39.983Z,54.13
2022-11-22T10:46:32.007Z,56.98
2022-11-22T10:49:12.877Z,59.04
2022-11-22T10:52:27.935Z,58.34
2022-11-22T10:55:23.080Z,58.45
2022-11-22T10:57:56.315Z,59.27
2022-11-22T11:00:26.120Z,61.86
2022-11-22T11:02:56.446Z,64.24
2022-11-22T11:05:33.203Z,63.65
2022-11-22T11:08:22.015Z,62.86
2022-11-22T11:10:49.154Z,63.28
2022-11-22T11:13:29.177Z,62.99
2022-11-22T11:15:59.475Z,63.46
2022-11-22T11:18:32.734Z,66.25
2022-11-22T11:21:00.270Z,63.99
2022-11-22T11:23:27.834Z,63.55
2022-11-22T11:25:55.304Z,63.16
2022-11-22T11:28:24.095Z,62.92
2022-11-22T11:30:58.737Z,64.61
2022-11-22T11:33:35.267Z,64.14
2022-11-22T11:36:04.742Z,64.85
2022-11-22T11:38:54.070Z,64.13
2022-11-22T11:41:37.513Z,63.90
2022-11-22T11:44:29.454Z,65.43
2022-11-22T11:46:58.359Z,66.14
2022-11-22T11:49:31.407Z,67.17
2022-11-22T11:52:03.641Z,66.57
2022-11-22T11:54:48.197Z,65.79
2022-11-22T11:57:20.124Z,63.84
2022-11-22T11:59:51.239Z,62.05
2022-11-22T12:02:26.878Z,62.36
2022-11-22T12:05:14.002Z,63.91
2022-11-22T12:07:46.273Z,65.90
2022-11-22T12:10:38.928Z,67.37
2022-11-22T12:13:27.431Z,68.78
2022-11-22T12:16:22.287Z,69.30
2022-11-22T12:19:14.040Z,69.74
2022-11-22T12:21:58.945Z,69.42
2022-11-22T12:24:52.346Z,68.89
2022-11-22T12:27:23.375Z,67.54
2022-11-22T12:29:52.999Z,69.46
2022-11-22T12:32:45.589Z,69.51
2022-11-22T12:35:19.891Z,70.53
2022-11-22T12:38:14.214Z,68.63
2022-11-22T12:40:45.888Z,68.21
2022-11-22T12:43:24.520Z,68.78
2022-11-22T12:46:16.753Z,70.53
2022-11-22T12:48:49.678Z,69.71
2022-11-22T12:51:54.037Z,70.83
2022-11-22T12:54:38.041Z,72.02
2022-11-22T12:57:23.041Z,73.35
2022-11-22T13:00:02.760Z,71.77
2022-11-22T13:02:53.268Z,72.61
2022-11-22T13:05:29.006Z,73.87
2022-11-22T13:08:05.824Z,72.66
2022-11-22T13:10:51.849Z,74.01
2022-11-22T13:13:23.766Z,73.09
2022-11-22T13:15:53.130Z,74.65
2022-11-22T13:18:26.075Z,74.37
2022-11-22T13:21:14.442Z,75.80
2022-11-22T13:24:00.676Z,75.28
2022-11-22T13:27:03.417Z,74.40
2022-11-22T13:29:33.639Z,75.18
2022-11-22T13:32:05.678Z,75.03
2022-11-22T13:34:36.332Z,76.22
2022-11-22T13:37:13.466Z,76.35
2022-11-22T13:39:50.658Z,77.43
